Time;durP1;ratioP1;P1;durP2;ratioP2;P2;SDS_P1;SDS_P2;PMS_P1;PMS_P2;Temp;Humidity;BMP_temperature;BMP_pressure;BME280_temperature;BME280_humidity;BME280_pressure;Samples;Min_cycle;Max_cycle;Signal;HPM_P1;HPM_P2
2023/04/04 00:01:49;;;;;;;7.00;1.20;;;;;;;0.77;86.97;102578.22;5033659;28;20443;-67
2023/04/04 00:04:16;;;;;;;5.00;1.10;;;;;;;0.77;88.48;102570.22;5033829;28;20562;-67
2023/04/04 00:06:44;;;;;;;4.80;0.97;;;;;;;0.75;88.93;102571.22;5033595;28;20501;-67
2023/04/04 00:09:11;;;;;;;4.80;1.00;;;;;;;0.59;89.72;102554.59;5033614;28;20505;-67
2023/04/04 00:11:40;;;;;;;4.50;0.90;;;;;;;0.60;90.18;102562.41;5033844;28;20443;-67
2023/04/04 00:14:07;;;;;;;7.63;2.00;;;;;;;0.57;90.89;102559.28;5033492;28;20929;-67
2023/04/04 00:16:34;;;;;;;7.53;1.37;;;;;;;0.64;90.36;102554.88;5033437;28;20479;-67
2023/04/04 00:19:00;;;;;;;6.20;0.93;;;;;;;0.73;89.59;102562.56;5033726;28;20439;-67
2023/04/04 00:21:29;;;;;;;6.93;1.37;;;;;;;0.68;89.94;102558.81;5033600;28;20442;-67
2023/04/04 00:23:56;;;;;;;5.13;0.80;;;;;;;0.69;90.12;102558.63;5033172;28;20541;-67
2023/04/04 00:26:22;;;;;;;6.60;1.40;;;;;;;0.63;89.90;102559.38;5033202;28;20523;-67
2023/04/04 00:28:50;;;;;;;5.57;1.10;;;;;;;0.53;90.56;102552.66;5033505;28;20825;-67
2023/04/04 00:31:17;;;;;;;6.53;1.13;;;;;;;0.60;90.43;102554.41;5033536;28;20446;-67
2023/04/04 00:33:44;;;;;;;5.83;1.30;;;;;;;0.64;90.31;102557.53;5033420;28;20467;-67
2023/04/04 00:36:11;;;;;;;11.30;1.20;;;;;;;0.60;90.75;102557.06;5033421;28;20809;-67
2023/04/04 00:38:37;;;;;;;4.80;0.80;;;;;;;0.52;89.98;102554.50;5033166;28;20501;-67
2023/04/04 00:41:05;;;;;;;4.63;0.83;;;;;;;0.57;89.84;102552.09;5033074;28;21011;-67
2023/04/04 00:43:32;;;;;;;6.10;1.03;;;;;;;0.65;88.70;102551.19;5032981;28;20965;-67
2023/04/04 00:46:00;;;;;;;7.80;1.10;;;;;;;0.66;88.22;102558.16;5033234;28;20489;-67
2023/04/04 00:48:27;;;;;;;4.80;0.90;;;;;;;0.61;89.19;102556.06;5033274;28;20453;-67
2023/04/04 00:50:54;;;;;;;6.43;1.53;;;;;;;0.56;88.43;102550.47;5033257;28;20474;-67
2023/04/04 00:53:21;;;;;;;5.80;1.30;;;;;;;0.50;89.30;102557.38;5033112;28;20445;-67
2023/04/04 00:55:47;;;;;;;6.00;1.20;;;;;;;0.49;88.45;102553.06;5033227;28;20442;-67
2023/04/04 00:58:14;;;;;;;4.77;0.93;;;;;;;0.52;88.86;102551.00;5033161;28;20450;-67
2023/04/04 01:00:40;;;;;;;12.37;1.40;;;;;;;0.46;88.53;102544.59;5033154;28;20446;-67
2023/04/04 01:03:11;;;;;;;4.97;1.10;;;;;;;0.45;88.57;102541.09;5032777;28;20439;-67
2023/04/04 01:05:38;;;;;;;6.83;0.90;;;;;;;0.37;88.65;102543.03;5032745;28;20467;-67
2023/04/04 01:08:05;;;;;;;8.20;0.93;;;;;;;0.35;88.50;102534.38;5033015;28;20812;-67
2023/04/04 01:10:33;;;;;;;5.30;1.07;;;;;;;0.29;87.71;102541.28;5032747;28;20451;-67
2023/04/04 01:13:00;;;;;;;5.47;0.80;;;;;;;0.16;87.92;102533.09;5033114;28;20489;-67
2023/04/04 01:15:27;;;;;;;6.07;1.37;;;;;;;0.20;88.08;102539.72;5032923;28;20459;-67
2023/04/04 01:17:57;;;;;;;5.60;1.10;;;;;;;0.13;87.48;102534.28;5032995;28;20446;-67
2023/04/04 01:20:26;;;;;;;6.90;1.30;;;;;;;0.06;87.93;102536.06;5033152;28;20803;-67
2023/04/04 01:22:56;;;;;;;5.23;1.33;;;;;;;0.04;88.76;102531.91;5032947;28;20825;-66
2023/04/04 01:25:29;;;;;;;5.73;1.30;;;;;;;-0.01;89.47;102535.13;5032350;28;20883;-67
2023/04/04 01:27:56;;;;;;;5.10;1.03;;;;;;;-0.04;89.43;102535.50;5032914;28;20455;-67
2023/04/04 01:30:24;;;;;;;5.00;1.20;;;;;;;-0.05;88.97;102526.66;5032817;28;20451;-67
2023/04/04 01:32:54;;;;;;;12.53;1.30;;;;;;;-0.09;90.62;102529.88;5032841;28;20817;-67
2023/04/04 01:35:29;;;;;;;6.00;0.90;;;;;;;-0.10;90.56;102533.53;5032706;28;20513;-67
2023/04/04 01:38:08;;;;;;;5.07;0.93;;;;;;;-0.08;89.52;102531.53;5032884;28;20481;-67
2023/04/04 01:40:38;;;;;;;5.40;1.10;;;;;;;-0.12;90.64;102535.56;5032775;28;20498;-67
2023/04/04 01:43:06;;;;;;;8.20;1.00;;;;;;;-0.19;90.39;102526.66;5032963;28;20438;-67
2023/04/04 01:45:32;;;;;;;10.23;1.80;;;;;;;-0.22;91.35;102527.00;5032680;28;20479;-67
2023/04/04 01:47:59;;;;;;;7.27;1.50;;;;;;;-0.30;91.05;102520.75;5032718;28;20522;-67
2023/04/04 01:50:26;;;;;;;12.60;2.07;;;;;;;-0.28;91.79;102516.06;5033272;28;20450;-67
2023/04/04 01:52:52;;;;;;;9.93;1.60;;;;;;;-0.20;91.10;102517.00;5036473;28;20441;-67
2023/04/04 01:55:20;;;;;;;5.73;1.10;;;;;;;-0.20;90.68;102517.00;5036066;28;20458;-67
2023/04/04 01:57:48;;;;;;;5.50;1.13;;;;;;;-0.31;92.00;102519.13;5036416;28;20447;-67
2023/04/04 02:00:16;;;;;;;8.73;1.47;;;;;;;-0.33;91.93;102517.63;5036400;28;20482;-67
2023/04/04 02:02:42;;;;;;;7.60;1.50;;;;;;;-0.40;92.19;102517.53;5036235;28;20481;-67
2023/04/04 02:05:09;;;;;;;5.33;1.27;;;;;;;-0.39;92.56;102513.88;5036254;28;20570;-67
2023/04/04 02:07:36;;;;;;;7.50;1.40;;;;;;;-0.34;92.51;102515.97;5036399;28;20442;-67
2023/04/04 02:10:02;;;;;;;8.83;1.60;;;;;;;-0.33;91.97;102513.13;5036297;28;20447;-66
2023/04/04 02:12:29;;;;;;;5.20;1.10;;;;;;;-0.45;92.17;102503.09;5036153;28;20489;-67
2023/04/04 02:14:57;;;;;;;5.33;1.10;;;;;;;-0.52;92.80;102509.16;5036322;28;20470;-67
2023/04/04 02:17:24;;;;;;;5.40;1.03;;;;;;;-0.64;93.05;102505.25;5036040;28;20533;-67
2023/04/04 02:19:51;;;;;;;5.43;1.10;;;;;;;-0.60;93.47;102500.41;5036001;28;20824;-67
2023/04/04 02:22:18;;;;;;;5.57;1.27;;;;;;;-0.57;92.83;102503.53;5035610;28;20447;-67
2023/04/04 02:24:44;;;;;;;14.60;1.13;;;;;;;-0.59;93.22;102500.22;5035523;28;20472;-67
2023/04/04 02:27:11;;;;;;;5.07;1.00;;;;;;;-0.70;93.48;102502.50;5035498;28;20991;-67
2023/04/04 02:29:37;;;;;;;9.80;1.23;;;;;;;-0.65;92.94;102498.28;5035790;28;20451;-67
2023/04/04 02:32:06;;;;;;;6.90;1.67;;;;;;;-0.53;91.72;102498.69;5035496;28;20455;-67
2023/04/04 02:34:32;;;;;;;5.87;1.40;;;;;;;-0.53;91.65;102496.03;5035556;28;20495;-67
2023/04/04 02:36:59;;;;;;;6.83;2.07;;;;;;;-0.61;92.11;102493.44;5035624;28;20435;-67
2023/04/04 02:39:25;;;;;;;6.63;1.60;;;;;;;-0.64;92.05;102493.78;5035145;28;20538;-67
2023/04/04 02:41:52;;;;;;;8.50;2.17;;;;;;;-0.79;92.27;102497.22;5035534;28;20438;-66
2023/04/04 02:44:19;;;;;;;8.20;2.43;;;;;;;-0.85;92.53;102492.59;5035116;28;20462;-66
2023/04/04 02:46:45;;;;;;;13.37;2.33;;;;;;;-0.79;92.69;102480.44;5035115;28;20478;-67
2023/04/04 02:49:14;;;;;;;7.10;2.00;;;;;;;-0.64;91.69;102481.31;5035440;28;20447;-67
2023/04/04 02:51:41;;;;;;;6.70;2.00;;;;;;;-0.69;91.44;102490.84;5035329;28;20451;-66
2023/04/04 02:54:08;;;;;;;5.67;1.20;;;;;;;-0.63;91.15;102480.28;5035057;28;20463;-67
2023/04/04 02:56:36;;;;;;;6.13;1.60;;;;;;;-0.82;91.11;102478.13;5035232;28;20439;-67
2023/04/04 02:59:03;;;;;;;5.57;1.60;;;;;;;-0.88;91.63;102477.03;5035300;28;20821;-67
2023/04/04 03:01:31;;;;;;;6.97;1.63;;;;;;;-1.01;91.62;102471.47;5034779;28;20469;-67
2023/04/04 03:03:57;;;;;;;6.03;1.80;;;;;;;-0.99;90.96;102466.78;5035076;28;20459;-68
2023/04/04 03:06:25;;;;;;;9.43;1.60;;;;;;;-1.01;90.60;102468.81;5035054;28;20485;-68
2023/04/04 03:08:52;;;;;;;7.60;1.93;;;;;;;-1.10;91.22;102462.72;5034702;28;20967;-68
2023/04/04 03:11:20;;;;;;;7.30;2.10;;;;;;;-1.18;90.57;102461.94;5034996;28;20443;-67
2023/04/04 03:13:47;;;;;;;6.30;1.87;;;;;;;-1.28;91.09;102460.34;5034918;28;20467;-68
2023/04/04 03:16:16;;;;;;;7.37;2.30;;;;;;;-1.07;89.81;102459.69;5034625;28;20798;-68
2023/04/04 03:18:43;;;;;;;6.60;1.43;;;;;;;-0.98;88.74;102463.13;5034514;28;20451;-68
2023/04/04 03:21:10;;;;;;;5.07;1.13;;;;;;;-1.01;88.05;102466.16;5034841;28;20849;-67
2023/04/04 03:23:38;;;;;;;9.23;2.00;;;;;;;-1.05;87.49;102465.69;5034419;28;20511;-68
2023/04/04 03:26:04;;;;;;;7.50;1.77;;;;;;;-1.21;88.34;102463.13;5097118;22;20496;-69
2023/04/04 03:28:31;;;;;;;7.80;2.83;;;;;;;-1.27;89.15;102454.03;5094735;28;20523;-68
2023/04/04 03:31:02;;;;;;;9.20;2.23;;;;;;;-1.36;89.15;102456.91;5094766;28;20524;-70
2023/04/04 03:33:29;;;;;;;5.67;1.57;;;;;;;-1.41;89.80;102449.47;5094712;28;20486;-69
2023/04/04 03:35:56;;;;;;;12.83;2.50;;;;;;;-1.47;90.67;102447.50;5094200;28;20867;-69
2023/04/04 03:38:22;;;;;;;8.30;2.37;;;;;;;-1.48;91.20;102453.81;5094606;28;20443;-67
2023/04/04 03:40:51;;;;;;;5.93;1.90;;;;;;;-1.47;90.96;102444.84;5094207;28;20859;-69
2023/04/04 03:43:17;;;;;;;10.33;1.90;;;;;;;-1.31;90.87;102444.75;5094540;28;20451;-68
2023/04/04 03:45:44;;;;;;;8.17;2.23;;;;;;;-1.43;90.87;102447.97;5094259;28;20492;-68
2023/04/04 03:48:11;;;;;;;6.90;2.07;;;;;;;-1.41;92.22;102438.84;5094460;28;20521;-68
2023/04/04 03:50:37;;;;;;;9.07;2.57;;;;;;;-1.37;91.93;102434.84;5094335;28;20877;-67
2023/04/04 03:53:04;;;;;;;7.00;1.50;;;;;;;-1.37;92.04;102439.31;5094382;28;20436;-68
2023/04/04 03:55:30;;;;;;;6.20;1.70;;;;;;;-1.42;91.54;102431.84;5093909;28;21008;-69
2023/04/04 03:57:58;;;;;;;7.13;1.93;;;;;;;-1.50;91.23;102429.28;5094234;28;20436;-67
2023/04/04 04:00:25;;;;;;;5.77;1.33;;;;;;;-1.55;91.30;102431.59;5093861;28;20527;-69
2023/04/04 04:02:52;;;;;;;10.50;1.40;;;;;;;-1.55;92.10;102427.13;5094192;28;20543;-69
2023/04/04 04:05:18;;;;;;;6.20;1.70;;;;;;;-1.50;91.59;102425.78;5094034;28;20492;-68
2023/04/04 04:07:45;;;;;;;6.43;1.67;;;;;;;-1.63;92.25;102424.53;5094163;28;20442;-68
2023/04/04 04:10:12;;;;;;;5.80;1.53;;;;;;;-1.70;91.89;102423.56;5094047;28;20440;-68
2023/04/04 04:12:39;;;;;;;7.43;2.33;;;;;;;-1.78;92.57;102421.75;5093854;28;20445;-68
2023/04/04 04:15:08;;;;;;;13.73;2.73;;;;;;;-1.78;91.76;102419.09;5093201;28;20468;-68
2023/04/04 04:17:38;;;;;;;7.90;1.90;;;;;;;-1.78;91.01;102419.09;5093851;28;20532;-68
2023/04/04 04:20:06;;;;;;;5.83;1.50;;;;;;;-1.76;90.83;102424.25;5093683;28;20476;-68
2023/04/04 04:22:33;;;;;;;6.70;1.90;;;;;;;-1.79;89.15;102420.09;5093756;28;20444;-69
2023/04/04 04:25:00;;;;;;;7.47;1.90;;;;;;;-1.75;89.46;102425.09;5093588;28;20563;-67
2023/04/04 04:27:26;;;;;;;8.60;2.37;;;;;;;-1.86;91.12;102428.94;5093723;28;20468;-71
2023/04/04 04:29:53;;;;;;;12.43;1.43;;;;;;;-1.75;90.64;102433.88;5093754;28;20466;-67
2023/04/04 04:32:21;;;;;;;6.57;1.70;;;;;;;-1.82;91.62;102431.06;5093426;28;21006;-66
2023/04/04 04:34:47;;;;;;;6.23;1.27;;;;;;;-1.90;91.63;102425.81;5093488;28;20463;-67
2023/04/04 04:37:14;;;;;;;8.80;1.30;;;;;;;-1.93;92.17;102435.94;5093198;28;20483;-67
2023/04/04 04:39:41;;;;;;;5.70;1.40;;;;;;;-1.90;92.51;102431.13;5093459;28;20444;-70
2023/04/04 04:42:07;;;;;;;6.47;1.30;;;;;;;-1.88;93.06;102429.13;5093610;28;20444;-69
2023/04/04 04:44:34;;;;;;;9.20;1.80;;;;;;;-1.90;93.07;102431.13;5093427;28;20437;-69
2023/04/04 04:47:01;;;;;;;8.53;2.07;;;;;;;-1.82;93.05;102438.22;5093459;28;20849;-70
2023/04/04 04:49:29;;;;;;;9.07;1.90;;;;;;;-1.82;93.33;102438.22;5093328;28;20445;-68
2023/04/04 04:51:55;;;;;;;6.13;1.63;;;;;;;-1.89;93.24;102431.97;5093397;28;20437;-68
2023/04/04 04:54:22;;;;;;;7.13;1.50;;;;;;;-1.83;93.11;102426.75;5093254;28;20484;-68
2023/04/04 04:56:49;;;;;;;6.17;1.67;;;;;;;-1.71;93.06;102439.69;5093233;28;20460;-69
2023/04/04 04:59:15;;;;;;;8.90;2.23;;;;;;;-1.79;93.21;102438.69;5093288;28;20523;-68
2023/04/04 05:01:42;;;;;;;11.60;1.70;;;;;;;-1.82;92.29;102447.00;5092980;28;20486;-68
2023/04/04 05:04:08;;;;;;;6.33;1.53;;;;;;;-1.78;91.59;102447.50;5092997;28;20440;-68
2023/04/04 05:06:36;;;;;;;9.07;2.20;;;;;;;-1.92;91.12;102451.69;5092962;28;20512;-69
2023/04/04 05:09:03;;;;;;;5.80;1.63;;;;;;;-1.83;91.47;102445.34;5093209;28;20440;-68
2023/04/04 05:11:30;;;;;;;6.37;1.60;;;;;;;-1.83;92.08;102442.69;5093322;28;20849;-69
2023/04/04 05:13:57;;;;;;;9.47;3.00;;;;;;;-1.85;91.30;102451.84;5092819;28;20964;-68
2023/04/04 05:16:24;;;;;;;5.73;1.43;;;;;;;-1.76;91.61;102452.66;5093090;28;20898;-68
2023/04/04 05:18:51;;;;;;;7.60;1.67;;;;;;;-1.79;91.53;102449.31;5093178;28;20537;-69
2023/04/04 05:21:18;;;;;;;9.60;2.63;;;;;;;-1.78;92.87;102452.81;5093189;28;20441;-68
2023/04/04 05:23:47;;;;;;;10.13;1.83;;;;;;;-1.72;91.80;102453.97;5093125;28;20492;-68
2023/04/04 05:26:14;;;;;;;6.70;1.50;;;;;;;-1.82;93.19;102449.66;5094597;28;20488;-69
2023/04/04 05:28:41;;;;;;;7.20;2.23;;;;;;;-1.78;93.72;102460.78;5096835;28;20440;-71
2023/04/04 05:31:07;;;;;;;9.37;2.20;;;;;;;-1.61;93.64;102458.88;5097078;28;20436;-68
2023/04/04 05:33:34;;;;;;;8.07;2.10;;;;;;;-1.55;93.92;102458.16;5096999;28;20444;-65
2023/04/04 05:36:01;;;;;;;9.93;2.23;;;;;;;-1.47;93.35;102465.28;5096915;28;20456;-67
2023/04/04 05:38:28;;;;;;;9.97;2.47;;;;;;;-1.44;93.54;102463.09;5096891;28;20442;-67
2023/04/04 05:40:56;;;;;;;11.20;2.80;;;;;;;-1.44;94.83;102457.78;5096976;28;20443;-68
2023/04/04 05:43:22;;;;;;;7.50;2.20;;;;;;;-1.37;94.81;102460.59;5096896;28;20468;-68
2023/04/04 05:45:49;;;;;;;5.03;1.50;;;;;;;-1.19;94.33;102458.47;5097179;28;20551;-68
2023/04/04 05:48:16;;;;;;;8.80;2.83;;;;;;;-1.12;94.41;102464.72;5096817;28;20480;-68
2023/04/04 05:50:44;;;;;;;12.30;2.83;;;;;;;-0.98;94.72;102470.28;5096383;28;20523;-68
2023/04/04 05:53:11;;;;;;;7.70;2.13;;;;;;;-0.93;95.35;102467.91;5096744;28;20476;-68
2023/04/04 05:55:38;;;;;;;10.80;2.67;;;;;;;-0.86;94.80;102466.19;5096564;28;20464;-69
2023/04/04 05:58:06;;;;;;;7.60;2.50;;;;;;;-0.65;94.20;102468.19;5096323;28;20523;-68
2023/04/04 06:00:32;;;;;;;9.73;2.60;;;;;;;-0.66;95.70;102475.34;5096552;28;20448;-68
2023/04/04 06:02:59;;;;;;;9.40;3.00;;;;;;;-0.56;94.90;102470.59;5096508;28;20440;-67
2023/04/04 06:05:25;;;;;;;13.63;3.43;;;;;;;-0.34;94.47;102468.06;5096367;28;20506;-68
2023/04/04 06:07:52;;;;;;;8.50;2.00;;;;;;;-0.22;95.04;102465.75;5096300;28;20480;-68
2023/04/04 06:10:18;;;;;;;9.53;2.53;;;;;;;-0.15;95.60;102466.69;5096246;28;20523;-68
2023/04/04 06:12:45;;;;;;;6.77;2.40;;;;;;;-0.07;94.99;102466.59;5096268;28;20813;-68
2023/04/04 06:15:13;;;;;;;7.70;1.97;;;;;;;-0.02;95.10;102473.03;5096129;28;20495;-70
2023/04/04 06:17:40;;;;;;;6.53;1.93;;;;;;;0.09;94.82;102465.56;5096161;28;20464;-70
2023/04/04 06:20:08;;;;;;;9.83;2.43;;;;;;;0.16;94.57;102482.50;5096228;28;20510;-68
2023/04/04 06:22:34;;;;;;;10.17;2.20;;;;;;;0.21;94.51;102477.44;5096064;28;20448;-68
2023/04/04 06:25:01;;;;;;;10.33;2.70;;;;;;;0.35;94.31;102481.09;5095805;28;20835;-68
2023/04/04 06:27:28;;;;;;;16.40;3.17;;;;;;;0.43;93.03;102478.31;5095969;28;20495;-68
2023/04/04 06:29:54;;;;;;;7.53;2.47;;;;;;;0.50;93.20;102488.06;5096091;28;20437;-69
2023/04/04 06:32:22;;;;;;;13.53;2.77;;;;;;;0.51;93.77;102483.53;5095670;28;20480;-68
2023/04/04 06:34:49;;;;;;;7.47;2.37;;;;;;;0.66;93.60;102480.84;5095829;28;20535;-68
2023/04/04 06:37:16;;;;;;;6.53;2.37;;;;;;;0.71;92.61;102476.59;5095557;28;20460;-68
2023/04/04 06:39:42;;;;;;;12.57;2.63;;;;;;;0.83;92.83;102486.75;5095581;28;20941;-72
2023/04/04 06:42:09;;;;;;;6.97;2.37;;;;;;;0.89;92.60;102480.69;5095450;28;20938;-69
2023/04/04 06:44:35;;;;;;;9.53;2.67;;;;;;;1.02;92.00;102480.81;5095666;28;20522;-69
2023/04/04 06:47:02;;;;;;;9.23;2.67;;;;;;;1.12;91.29;102481.31;5095731;28;20490;-68
2023/04/04 06:49:30;;;;;;;12.03;3.00;;;;;;;1.21;90.74;102474.00;5095967;28;20507;-70
2023/04/04 06:51:56;;;;;;;7.10;1.80;;;;;;;1.27;90.61;102479.41;5095554;28;20451;-69
2023/04/04 06:54:23;;;;;;;7.43;2.50;;;;;;;1.35;90.10;102466.94;5095323;28;20823;-69
2023/04/04 06:56:50;;;;;;;7.67;2.80;;;;;;;1.42;89.75;102468.66;5095415;28;20894;-72
2023/04/04 06:59:17;;;;;;;8.30;2.30;;;;;;;1.50;89.00;102473.00;5095507;28;20448;-68
2023/04/04 07:01:43;;;;;;;5.57;1.53;;;;;;;1.56;88.62;102472.25;5095387;28;20532;-68
2023/04/04 07:04:10;;;;;;;12.70;1.80;;;;;;;1.68;88.29;102472.53;5095464;28;20528;-67
2023/04/04 07:06:38;;;;;;;6.10;1.87;;;;;;;1.76;87.71;102462.50;5095367;28;20549;-69
2023/04/04 07:09:05;;;;;;;10.07;1.47;;;;;;;1.77;86.65;102464.19;5095267;28;20479;-68
2023/04/04 07:11:32;;;;;;;6.43;1.60;;;;;;;1.85;86.30;102467.69;5095370;28;20449;-68
2023/04/04 07:13:58;;;;;;;5.43;1.50;;;;;;;1.94;86.63;102453.16;5095268;28;20449;-68
2023/04/04 07:16:25;;;;;;;5.77;1.10;;;;;;;2.04;84.83;102459.00;5095067;28;20457;-69
2023/04/04 07:18:52;;;;;;;5.77;1.47;;;;;;;2.13;84.10;102463.16;5095249;28;20440;-68
2023/04/04 07:21:19;;;;;;;5.30;1.17;;;;;;;2.16;83.33;102456.56;5095073;28;20451;-67
2023/04/04 07:23:47;;;;;;;5.03;1.17;;;;;;;2.20;82.89;102450.63;5095254;28;20531;-68
2023/04/04 07:26:14;;;;;;;6.40;1.13;;;;;;;2.27;81.32;102456.84;5094515;28;20460;-69
2023/04/04 07:28:40;;;;;;;5.07;1.03;;;;;;;2.40;81.50;102452.56;5094841;28;20484;-69
2023/04/04 07:31:07;;;;;;;4.53;0.87;;;;;;;2.45;80.55;102456.28;5094589;28;20440;-69
2023/04/04 07:33:33;;;;;;;5.27;1.33;;;;;;;2.48;77.86;102447.88;5094780;28;20536;-69
2023/04/04 07:36:01;;;;;;;5.60;1.00;;;;;;;2.55;78.75;102445.19;5094413;28;20996;-69
2023/04/04 07:38:27;;;;;;;5.73;1.37;;;;;;;2.66;78.34;102447.31;5094312;28;20937;-69
2023/04/04 07:40:55;;;;;;;5.10;1.10;;;;;;;2.77;78.39;102445.88;5094310;28;20902;-68
2023/04/04 07:43:22;;;;;;;7.67;1.60;;;;;;;2.77;77.46;102443.19;5094586;28;20494;-69
2023/04/04 07:45:49;;;;;;;4.97;0.93;;;;;;;2.77;76.95;102449.38;5094474;28;20471;-69
2023/04/04 07:48:15;;;;;;;4.90;0.83;;;;;;;2.85;76.47;102442.19;5093119;28;20571;-66
2023/04/04 07:50:42;;;;;;;7.80;1.10;;;;;;;2.97;76.06;102445.91;5094099;28;20959;-67
2023/04/04 07:53:08;;;;;;;5.13;0.90;;;;;;;3.04;75.24;102442.19;5093970;28;20436;-69
2023/04/04 07:55:35;;;;;;;5.63;1.03;;;;;;;2.91;73.89;102442.19;5094039;28;20957;-70
2023/04/04 07:58:03;;;;;;;5.77;1.00;;;;;;;2.89;72.67;102446.09;5094489;28;20518;-69
2023/04/04 08:00:29;;;;;;;4.87;0.90;;;;;;;3.02;73.55;102436.25;5094350;28;20468;-69
2023/04/04 08:02:57;;;;;;;8.83;1.17;;;;;;;3.10;74.06;102437.03;5094598;28;20491;-69
2023/04/04 08:05:24;;;;;;;6.53;0.87;;;;;;;3.11;74.08;102439.53;5094091;28;20900;-68
2023/04/04 08:07:51;;;;;;;5.60;1.00;;;;;;;3.23;73.67;102443.25;5094165;28;20571;-69
2023/04/04 08:10:19;;;;;;;5.07;0.87;;;;;;;3.38;73.04;102437.69;5094147;28;20436;-68
2023/04/04 08:12:46;;;;;;;5.73;1.17;;;;;;;3.47;71.86;102436.44;5094002;28;20460;-68
2023/04/04 08:15:14;;;;;;;5.90;0.70;;;;;;;3.46;71.16;102432.13;5093903;28;20469;-69
2023/04/04 08:17:42;;;;;;;12.90;1.13;;;;;;;3.47;70.54;102438.28;5093782;28;20472;-68
2023/04/04 08:20:09;;;;;;;4.90;0.80;;;;;;;3.40;67.59;102435.59;5093771;28;20445;-70
2023/04/04 08:22:35;;;;;;;5.20;0.90;;;;;;;3.35;66.58;102434.59;5093569;28;20448;-69
2023/04/04 08:25:03;;;;;;;4.40;0.80;;;;;;;3.53;67.66;102437.44;5093292;28;20962;-68
2023/04/04 08:27:30;;;;;;;4.50;0.90;;;;;;;3.68;69.23;102442.59;5093758;28;20999;-68
2023/04/04 08:29:56;;;;;;;8.63;1.23;;;;;;;3.78;69.88;102434.94;5093410;28;20532;-69
2023/04/04 08:32:24;;;;;;;5.80;1.03;;;;;;;3.94;68.21;102433.66;5093680;28;20472;-68
2023/04/04 08:34:51;;;;;;;6.40;1.10;;;;;;;3.72;63.22;102441.16;5093286;28;20544;-68
2023/04/04 08:37:18;;;;;;;6.27;1.40;;;;;;;3.68;64.63;102435.38;5093540;28;20528;-69
2023/04/04 08:39:45;;;;;;;4.50;0.80;;;;;;;3.67;62.61;102444.44;5093197;28;20475;-68
2023/04/04 08:42:15;;;;;;;6.10;1.10;;;;;;;3.80;63.92;102440.91;5093220;28;20444;-68
2023/04/04 08:44:44;;;;;;;7.17;1.77;;;;;;;3.88;64.66;102434.50;5093478;28;20436;-68
2023/04/04 08:47:12;;;;;;;5.33;1.00;;;;;;;3.96;66.03;102431.59;5093085;28;21015;-69
2023/04/04 08:49:43;;;;;;;6.10;0.90;;;;;;;4.12;65.73;102430.28;5093454;28;20815;-68
2023/04/04 08:52:12;;;;;;;4.67;0.90;;;;;;;4.21;63.94;102432.53;5093491;28;20846;-68
2023/04/04 08:54:39;;;;;;;5.77;0.87;;;;;;;4.37;61.43;102423.16;5092868;28;20449;-68
2023/04/04 08:57:07;;;;;;;4.83;0.80;;;;;;;4.54;61.34;102426.19;5093338;28;20436;-69
2023/04/04 08:59:34;;;;;;;7.20;0.90;;;;;;;4.45;61.92;102419.41;5092800;28;20440;-69
2023/04/04 09:02:14;;;;;;;9.33;0.97;;;;;;;4.43;62.80;102421.50;5093223;28;20440;-69
2023/04/04 09:04:43;;;;;;;5.10;1.00;;;;;;;4.72;61.67;102418.22;5093262;28;20457;-69
2023/04/04 09:07:11;;;;;;;4.80;0.60;;;;;;;4.99;59.95;102420.72;5093179;28;20442;-68
2023/04/04 09:09:38;;;;;;;4.40;0.60;;;;;;;4.95;58.45;102422.19;5093230;28;20449;-69
2023/04/04 09:12:05;;;;;;;7.33;0.90;;;;;;;5.01;59.36;102415.97;5093231;28;20874;-69
2023/04/04 09:14:37;;;;;;;4.60;0.73;;;;;;;4.66;58.41;102416.41;5092737;28;20440;-69
2023/04/04 09:17:04;;;;;;;4.63;0.77;;;;;;;4.47;59.21;102411.97;5093205;28;20439;-68
2023/04/04 09:19:31;;;;;;;6.87;0.90;;;;;;;4.46;59.71;102413.84;5093150;28;20448;-68
2023/04/04 09:21:59;;;;;;;5.73;0.90;;;;;;;4.18;59.73;102416.88;5093181;28;20450;-69
2023/04/04 09:24:37;;;;;;;6.13;0.83;;;;;;;4.21;60.22;102412.94;5093050;28;20451;-69
2023/04/04 09:27:04;;;;;;;4.70;0.80;;;;;;;4.38;59.53;102410.56;5100752;22;20496;-67
2023/04/04 09:29:33;;;;;;;4.60;0.60;;;;;;;4.55;58.74;102419.78;5072764;28;20477;-67
2023/04/04 09:32:00;;;;;;;4.60;0.53;;;;;;;4.67;57.49;102414.56;5072580;28;20909;-67
2023/04/04 09:34:28;;;;;;;4.50;0.80;;;;;;;4.58;57.97;102413.97;5072697;28;20851;-67
2023/04/04 09:36:55;;;;;;;5.30;0.90;;;;;;;4.45;57.89;102422.09;5072587;28;20450;-67
2023/04/04 09:39:23;;;;;;;7.43;0.93;;;;;;;4.47;56.09;102417.34;5072716;28;20443;-67
2023/04/04 09:41:50;;;;;;;4.50;0.60;;;;;;;4.59;55.25;102415.63;5072712;28;20529;-67
2023/04/04 09:44:17;;;;;;;5.17;0.70;;;;;;;4.80;55.84;102411.78;5072707;28;20476;-67
2023/04/04 09:46:44;;;;;;;8.57;1.10;;;;;;;5.04;55.84;102413.66;5072526;28;20472;-67
2023/04/04 09:49:11;;;;;;;4.70;0.80;;;;;;;5.37;55.24;102401.81;5072555;28;20499;-67
2023/04/04 09:51:40;;;;;;;4.83;0.90;;;;;;;5.61;54.10;102394.75;5072301;28;20981;-66
2023/04/04 09:54:10;;;;;;;9.50;1.40;;;;;;;5.61;54.14;102410.88;5072587;28;20814;-67
2023/04/04 09:56:39;;;;;;;4.53;0.73;;;;;;;5.40;54.99;102403.22;5072490;28;20467;-67
2023/04/04 09:59:07;;;;;;;4.90;0.83;;;;;;;5.32;54.66;102398.97;5072534;28;20498;-67
2023/04/04 10:01:34;;;;;;;4.50;0.70;;;;;;;5.09;52.75;102414.84;5072417;28;20442;-67
2023/04/04 10:04:00;;;;;;;4.30;0.60;;;;;;;5.01;53.26;102406.03;5072501;28;20520;-67
2023/04/04 10:06:27;;;;;;;5.37;0.90;;;;;;;5.03;53.40;102400.44;5072494;28;20457;-67
2023/04/04 10:08:54;;;;;;;4.63;0.60;;;;;;;4.96;52.77;102402.38;5072412;28;20481;-67
2023/04/04 10:11:31;;;;;;;4.70;0.77;;;;;;;5.28;53.22;102403.13;5072597;28;20882;-67
2023/04/04 10:13:59;;;;;;;4.70;1.00;;;;;;;5.61;52.45;102392.06;5075983;28;20544;-67
2023/04/04 10:16:26;;;;;;;7.83;0.80;;;;;;;5.91;52.75;102385.94;5075603;28;21001;-67
2023/04/04 10:18:53;;;;;;;5.03;0.80;;;;;;;6.20;52.82;102379.81;5076008;28;20445;-67
2023/04/04 10:21:20;;;;;;;8.90;0.80;;;;;;;6.29;51.93;102389.22;5075870;28;20508;-67
2023/04/04 10:23:47;;;;;;;12.93;1.03;;;;;;;6.43;48.61;102373.69;5075831;28;20445;-67
2023/04/04 10:26:14;;;;;;;4.30;0.50;;;;;;;6.37;48.65;102384.53;5075494;28;20480;-68
2023/04/04 10:28:42;;;;;;;6.20;1.07;;;;;;;6.29;48.35;102383.00;5075313;28;21055;-67
2023/04/04 10:31:22;;;;;;;7.43;1.10;;;;;;;6.32;47.32;102394.13;5075716;28;20514;-67
2023/04/04 10:33:58;;;;;;;4.60;0.67;;;;;;;6.36;47.30;102393.66;5075738;28;20432;-67
2023/04/04 10:36:30;;;;;;;4.57;0.67;;;;;;;6.56;48.76;102388.84;5075290;28;20493;-67
2023/04/04 10:39:05;;;;;;;5.17;0.53;;;;;;;6.74;47.78;102386.06;5075613;28;20426;-67
2023/04/04 10:41:32;;;;;;;4.57;0.77;;;;;;;7.04;47.20;102379.81;5075232;28;20906;-67
2023/04/04 10:44:08;;;;;;;5.13;1.00;;;;;;;7.30;46.14;102370.44;5075537;28;20437;-67
2023/04/04 10:46:41;;;;;;;6.53;0.93;;;;;;;7.72;47.52;102371.09;5075436;28;20461;-67
2023/04/04 10:49:08;;;;;;;4.40;0.60;;;;;;;7.61;45.42;102384.59;5075356;28;20461;-67
2023/04/04 10:51:35;;;;;;;4.90;0.90;;;;;;;7.22;46.63;102365.41;5075272;28;20524;-68
2023/04/04 10:54:03;;;;;;;4.33;0.47;;;;;;;7.13;47.47;102370.31;5075270;28;20441;-67
2023/04/04 10:56:30;;;;;;;4.90;0.90;;;;;;;7.08;46.06;102365.66;5075171;28;20844;-67
2023/04/04 10:59:09;;;;;;;5.10;1.00;;;;;;;7.18;47.48;102364.25;5075169;28;20536;-67
2023/04/04 11:01:49;;;;;;;5.17;0.90;;;;;;;7.06;45.83;102351.56;5075224;28;20437;-67
2023/04/04 11:04:16;;;;;;;4.50;0.70;;;;;;;7.41;44.19;102355.31;5075190;28;20432;-67
2023/04/04 11:07:12;;;;;;;6.00;0.80;;;;;;;7.84;42.83;102352.19;5074689;28;20969;-67
2023/04/04 11:09:53;;;;;;;6.00;0.63;;;;;;;8.11;43.13;102357.84;5074657;28;20465;-67
2023/04/04 11:12:27;;;;;;;7.17;1.03;;;;;;;8.01;43.88;102346.84;5074969;28;20815;-67
2023/04/04 11:15:10;;;;;;;4.57;0.73;;;;;;;8.20;44.79;102342.91;5075033;28;20461;-67
2023/04/04 11:18:01;;;;;;;5.17;0.73;;;;;;;8.07;43.28;102349.41;5072679;28;20946;-67
2023/04/04 11:20:33;;;;;;;5.57;1.03;;;;;;;8.06;43.77;102349.66;5074798;28;20426;-67
2023/04/04 11:23:08;;;;;;;7.60;0.70;;;;;;;8.18;43.02;102352.31;5074766;28;20555;-67
2023/04/04 11:25:39;;;;;;;4.30;0.57;;;;;;;8.44;43.14;102343.63;5074449;28;20477;-67
2023/04/04 11:28:08;;;;;;;4.67;0.80;;;;;;;10.06;42.50;102336.22;5074607;28;20978;-67
2023/04/04 11:30:43;;;;;;;4.57;0.50;;;;;;;10.52;39.25;102336.72;5074568;28;20445;-67
2023/04/04 11:33:14;;;;;;;4.90;0.57;;;;;;;11.99;39.08;102327.81;5074618;28;20428;-67